createdAt,value
2023-04-23T00:01:28.087Z,18.02
2023-04-23T00:03:58.924Z,17.63
2023-04-23T00:06:27.306Z,18.33
2023-04-23T00:08:55.560Z,18.05
2023-04-23T00:11:23.018Z,18.13
2023-04-23T00:13:50.339Z,17.67
2023-04-23T00:16:21.469Z,17.52
2023-04-23T00:18:49.602Z,18.05
2023-04-23T00:21:17.158Z,17.90
2023-04-23T00:23:44.216Z,17.77
2023-04-23T00:26:11.261Z,17.92
2023-04-23T00:28:38.814Z,18.30
2023-04-23T00:31:06.173Z,18.48
2023-04-23T00:33:33.563Z,17.60
2023-04-23T00:36:01.017Z,18.42
2023-04-23T00:38:28.445Z,18.10
2023-04-23T00:40:55.608Z,18.30
2023-04-23T00:43:22.801Z,18.63
2023-04-23T00:45:50.121Z,18.00
2023-04-23T00:48:19.905Z,17.92
2023-04-23T00:50:47.027Z,18.05
2023-04-23T00:53:14.295Z,17.98
2023-04-23T00:55:41.615Z,18.38
2023-04-23T00:58:09.285Z,18.10
2023-04-23T01:00:42.885Z,18.05
2023-04-23T01:03:11.208Z,17.83
2023-04-23T01:05:38.832Z,18.33
2023-04-23T01:08:06.888Z,18.10
2023-04-23T01:10:34.512Z,17.75
2023-04-23T01:13:01.640Z,17.90
2023-04-23T01:15:28.734Z,17.80
2023-04-23T01:17:57.434Z,17.75
2023-04-23T01:20:25.280Z,17.98
2023-04-23T01:22:52.412Z,17.48
2023-04-23T01:25:19.869Z,17.77
2023-04-23T01:27:47.292Z,17.42
2023-04-23T01:30:15.024Z,17.83
2023-04-23T01:32:42.774Z,17.42
2023-04-23T01:35:13.662Z,17.50
2023-04-23T01:37:42.066Z,17.85
2023-04-23T01:40:10.819Z,17.98
2023-04-23T01:42:39.270Z,17.60
2023-04-23T01:45:08.265Z,17.55
2023-04-23T01:47:36.105Z,17.38
2023-04-23T01:50:05.471Z,16.75
2023-04-23T01:52:32.513Z,17.30
2023-04-23T01:54:59.905Z,17.00
2023-04-23T01:57:27.070Z,17.10
2023-04-23T02:00:15.221Z,17.58
2023-04-23T02:02:44.476Z,16.60
2023-04-23T02:05:17.319Z,17.52
2023-04-23T02:07:45.899Z,17.10
2023-04-23T02:10:13.509Z,17.30
2023-04-23T02:12:40.857Z,17.15
2023-04-23T02:15:09.637Z,16.70
2023-04-23T02:17:37.030Z,17.52
2023-04-23T02:20:04.680Z,17.65
2023-04-23T02:22:31.762Z,17.42
2023-04-23T02:25:00.383Z,17.45
2023-04-23T02:27:27.572Z,17.70
2023-04-23T02:29:54.742Z,17.67
2023-04-23T02:32:21.877Z,17.40
2023-04-23T02:34:49.118Z,17.95
2023-04-23T02:37:16.281Z,18.00
2023-04-23T02:39:44.622Z,18.33
2023-04-23T02:42:12.072Z,17.67
2023-04-23T02:44:39.412Z,17.33
2023-04-23T02:47:06.727Z,17.63
2023-04-23T02:49:33.787Z,17.40
2023-04-23T02:52:01.066Z,18.33
2023-04-23T02:54:28.111Z,17.67
2023-04-23T02:56:55.126Z,17.60
2023-04-23T02:59:22.157Z,18.30
2023-04-23T03:01:49.316Z,18.50
2023-04-23T03:04:16.781Z,20.00
2023-04-23T03:06:44.223Z,19.45
2023-04-23T03:09:12.348Z,19.60
2023-04-23T03:11:40.015Z,20.13
2023-04-23T03:14:07.523Z,19.98
2023-04-23T03:16:34.956Z,20.38
2023-04-23T03:19:02.231Z,20.67
2023-04-23T03:21:29.618Z,20.70
2023-04-23T03:23:57.439Z,21.30
2023-04-23T03:26:24.525Z,23.30
2023-04-23T03:28:51.629Z,24.23
2023-04-23T03:31:18.729Z,22.27
2023-04-23T03:33:45.930Z,21.80
2023-04-23T03:36:14.521Z,21.17
2023-04-23T03:38:41.824Z,21.38
2023-04-23T03:41:08.946Z,21.52
2023-04-23T03:43:35.986Z,21.25
2023-04-23T03:46:03.073Z,22.05
2023-04-23T03:48:30.083Z,22.10
2023-04-23T03:50:57.752Z,21.58
2023-04-23T03:53:25.048Z,21.88
2023-04-23T03:55:52.374Z,20.70
2023-04-23T03:58:21.367Z,23.35
2023-04-23T04:00:48.422Z,22.40
2023-04-23T04:03:15.987Z,23.15
2023-04-23T04:05:44.652Z,24.17
2023-04-23T04:08:11.905Z,24.85
2023-04-23T04:10:38.976Z,25.58
2023-04-23T04:13:06.046Z,27.40
2023-04-23T04:15:33.678Z,27.02
2023-04-23T04:18:01.416Z,26.20
2023-04-23T04:20:31.363Z,26.95
2023-04-23T04:22:58.510Z,27.58
2023-04-23T04:25:29.014Z,27.60
2023-04-23T04:27:58.044Z,28.23
2023-04-23T04:30:27.391Z,33.30
2023-04-23T04:32:54.912Z,31.67
2023-04-23T04:35:22.038Z,37.50
2023-04-23T04:37:50.027Z,33.63
2023-04-23T04:40:18.614Z,38.08
2023-04-23T04:42:48.635Z,36.00
2023-04-23T04:45:16.404Z,33.90
2023-04-23T04:47:45.030Z,34.10
2023-04-23T04:50:12.483Z,33.42
2023-04-23T04:52:39.748Z,31.73
2023-04-23T04:55:07.346Z,32.30
2023-04-23T04:57:34.525Z,31.73
2023-04-23T05:00:20.081Z,33.50
2023-04-23T05:02:50.262Z,34.08
2023-04-23T05:05:18.102Z,34.30
2023-04-23T05:07:45.133Z,34.25
2023-04-23T05:10:13.492Z,34.78
2023-04-23T05:12:43.784Z,34.42
2023-04-23T05:15:15.995Z,34.50
2023-04-23T05:17:43.556Z,35.03
2023-04-23T05:20:11.387Z,35.78
2023-04-23T05:22:41.717Z,36.22
2023-04-23T05:25:10.557Z,35.80
2023-04-23T05:27:40.001Z,34.45
2023-04-23T05:30:11.510Z,35.85
2023-04-23T05:32:40.465Z,35.38
2023-04-23T05:35:07.828Z,36.25
2023-04-23T05:37:34.987Z,36.08
2023-04-23T05:40:03.361Z,35.13
2023-04-23T05:42:32.025Z,36.15
2023-04-23T05:44:59.325Z,34.67
2023-04-23T05:47:26.564Z,35.00
2023-04-23T05:49:53.722Z,36.10
2023-04-23T05:52:21.028Z,33.50
2023-04-23T05:54:48.397Z,36.85
2023-04-23T05:57:15.841Z,33.85
2023-04-23T05:59:42.951Z,36.92
2023-04-23T06:02:11.335Z,36.60
2023-04-23T06:04:38.602Z,36.20
2023-04-23T06:07:06.833Z,35.15
2023-04-23T06:09:35.019Z,39.95
2023-04-23T06:12:03.567Z,40.58
2023-04-23T06:14:31.827Z,41.92
2023-04-23T06:16:59.006Z,40.05
2023-04-23T06:19:27.557Z,35.65
2023-04-23T06:21:54.920Z,36.53
2023-04-23T06:24:22.090Z,33.88
2023-04-23T06:26:49.543Z,34.13
2023-04-23T06:29:16.720Z,43.00
2023-04-23T06:31:43.984Z,35.70
2023-04-23T06:34:11.263Z,44.55
2023-04-23T06:36:38.664Z,42.58
2023-04-23T06:39:05.885Z,39.10
2023-04-23T06:41:32.912Z,44.97
2023-04-23T06:44:01.669Z,32.33
2023-04-23T06:46:28.744Z,33.05
2023-04-23T06:48:56.065Z,32.38
2023-04-23T06:51:25.724Z,33.80
2023-04-23T06:53:52.901Z,29.98
2023-04-23T06:56:21.716Z,47.08
2023-04-23T06:58:48.718Z,32.15
2023-04-23T07:01:15.979Z,30.95
2023-04-23T07:03:45.202Z,31.85
2023-04-23T07:06:13.651Z,33.08
2023-04-23T07:08:40.809Z,31.63
2023-04-23T07:11:08.137Z,31.35
2023-04-23T07:13:35.140Z,31.02
2023-04-23T07:16:02.249Z,31.85
2023-04-23T07:18:29.366Z,30.00
2023-04-23T07:20:56.564Z,31.02
2023-04-23T07:23:23.633Z,32.65
2023-04-23T07:25:50.741Z,30.70
2023-04-23T07:28:17.854Z,30.25
2023-04-23T07:30:44.886Z,29.85
2023-04-23T07:33:12.440Z,29.33
2023-04-23T07:35:39.936Z,30.65
2023-04-23T07:38:08.472Z,27.85
2023-04-23T07:40:37.719Z,27.23
2023-04-23T07:43:04.889Z,25.75
2023-04-23T07:45:31.935Z,27.52
2023-04-23T07:47:59.931Z,26.33
2023-04-23T07:50:26.935Z,26.35
2023-04-23T07:52:54.222Z,26.48
2023-04-23T07:55:21.872Z,24.83
2023-04-23T07:57:49.472Z,25.42
2023-04-23T08:00:16.683Z,24.73
2023-04-23T08:02:44.085Z,23.08
2023-04-23T08:05:11.618Z,22.73
2023-04-23T08:07:38.883Z,24.70
2023-04-23T08:10:07.101Z,23.83
2023-04-23T08:12:36.225Z,24.23
2023-04-23T08:15:04.242Z,24.10
2023-04-23T08:17:31.359Z,24.77
2023-04-23T08:19:58.601Z,25.75
2023-04-23T08:22:25.810Z,23.35
2023-04-23T08:24:53.286Z,23.02
2023-04-23T08:27:20.697Z,25.38
2023-04-23T08:29:47.915Z,21.42
2023-04-23T08:32:16.269Z,20.70
2023-04-23T08:34:44.850Z,21.60
2023-04-23T08:37:23.242Z,20.20
2023-04-23T08:39:57.135Z,19.90
2023-04-23T08:42:32.678Z,19.88
2023-04-23T08:44:59.943Z,19.65
2023-04-23T08:47:30.422Z,20.92
2023-04-23T08:50:01.296Z,21.35
2023-04-23T08:52:35.049Z,20.90
2023-04-23T08:55:06.553Z,21.33
2023-04-23T08:57:34.193Z,19.95
2023-04-23T09:00:02.187Z,21.77
2023-04-23T09:02:29.694Z,20.80
2023-04-23T09:04:57.102Z,21.02
2023-04-23T09:07:24.253Z,20.52
2023-04-23T09:09:51.417Z,21.02
2023-04-23T09:12:21.376Z,20.25
2023-04-23T09:14:52.021Z,22.42
2023-04-23T09:17:19.689Z,20.65
2023-04-23T09:19:47.537Z,19.98
2023-04-23T09:22:14.818Z,19.33
2023-04-23T09:24:44.887Z,19.55
2023-04-23T09:27:12.376Z,20.02
2023-04-23T09:29:39.740Z,19.00
2023-04-23T09:32:10.503Z,19.92
2023-04-23T09:34:37.940Z,20.15
2023-04-23T09:37:08.256Z,19.77
2023-04-23T09:39:36.223Z,19.25
2023-04-23T09:42:05.684Z,20.15
2023-04-23T09:44:34.588Z,19.80
2023-04-23T09:47:15.452Z,19.52
2023-04-23T09:49:48.223Z,21.08
2023-04-23T09:52:16.093Z,20.65
2023-04-23T09:54:43.946Z,19.73
2023-04-23T09:57:12.130Z,19.65
2023-04-23T09:59:47.655Z,19.42
2023-04-23T10:02:16.717Z,19.10
2023-04-23T10:04:45.353Z,18.95
2023-04-23T10:07:19.785Z,19.73
2023-04-23T10:09:48.239Z,19.50
2023-04-23T10:14:49.548Z,18.50
2023-04-23T10:17:17.754Z,18.60
2023-04-23T10:19:45.573Z,18.65
2023-04-23T10:22:19.562Z,18.95
2023-04-23T10:29:51.607Z,18.65
2023-04-23T10:32:20.650Z,18.38
2023-04-23T10:34:48.758Z,22.80
2023-04-23T10:37:17.015Z,18.65
2023-04-23T10:39:48.386Z,17.88
2023-04-23T10:42:16.999Z,19.15
2023-04-23T10:44:59.149Z,18.60
2023-04-23T10:47:31.013Z,17.70
2023-04-23T10:49:58.191Z,17.48
2023-04-23T10:52:26.071Z,17.98
2023-04-23T10:55:00.331Z,17.73
2023-04-23T10:59:56.703Z,17.27
2023-04-23T11:02:25.996Z,17.45
2023-04-23T11:04:59.567Z,17.35
2023-04-23T11:07:32.076Z,16.70
2023-04-23T11:10:15.736Z,16.52
2023-04-23T11:12:44.621Z,17.50
2023-04-23T11:15:16.693Z,19.10
2023-04-23T11:17:48.936Z,18.85
2023-04-23T11:20:21.374Z,17.83
2023-04-23T11:22:49.929Z,18.80
2023-04-23T11:25:27.232Z,18.70
2023-04-23T11:27:57.116Z,17.10
2023-04-23T11:30:27.029Z,17.33
2023-04-23T11:32:56.730Z,17.42
2023-04-23T11:35:29.642Z,18.10
2023-04-23T11:37:57.215Z,17.45
2023-04-23T11:40:24.551Z,17.50
2023-04-23T11:42:55.548Z,18.15
2023-04-23T11:45:30.021Z,18.95
2023-04-23T11:47:58.816Z,17.13
2023-04-23T11:50:30.182Z,17.80
2023-04-23T11:52:57.697Z,17.60
2023-04-23T11:55:25.011Z,17.58
2023-04-23T11:57:53.164Z,17.80
2023-04-23T12:00:24.302Z,17.10
2023-04-23T12:02:58.872Z,17.63
2023-04-23T12:05:29.175Z,18.33
2023-04-23T12:08:10.919Z,17.08
2023-04-23T12:10:47.293Z,17.17
2023-04-23T12:13:30.252Z,16.92
2023-04-23T12:15:59.777Z,17.20
2023-04-23T12:18:30.789Z,17.20
2023-04-23T12:21:08.177Z,17.92
2023-04-23T12:23:36.814Z,16.95
2023-04-23T12:26:05.020Z,17.15
2023-04-23T12:28:33.102Z,16.77
2023-04-23T12:31:01.811Z,16.30
2023-04-23T12:33:33.188Z,16.70
2023-04-23T12:36:01.050Z,17.48
2023-04-23T12:38:30.298Z,18.02
2023-04-23T12:40:59.320Z,16.83
2023-04-23T12:43:28.833Z,18.10
2023-04-23T12:45:59.130Z,18.10
2023-04-23T12:48:26.838Z,16.73
2023-04-23T12:50:54.029Z,17.55
2023-04-23T12:53:21.285Z,16.70
2023-04-23T12:55:50.651Z,16.92
2023-04-23T12:58:17.751Z,16.75
2023-04-23T13:00:44.796Z,17.10
2023-04-23T13:03:14.530Z,17.02
2023-04-23T13:05:42.195Z,19.00
2023-04-23T13:08:09.438Z,18.20
2023-04-23T13:10:37.149Z,17.80
2023-04-23T13:13:05.953Z,17.65
2023-04-23T13:15:33.041Z,17.58
2023-04-23T13:18:00.496Z,17.00
2023-04-23T13:20:27.902Z,17.67
2023-04-23T13:22:55.028Z,18.05
2023-04-23T13:25:23.107Z,16.67
2023-04-23T13:27:50.258Z,17.15
2023-04-23T13:30:17.646Z,18.48
2023-04-23T13:32:44.857Z,17.80
2023-04-23T13:35:14.677Z,17.02
2023-04-23T13:37:41.857Z,17.42
2023-04-23T13:40:09.765Z,17.20
2023-04-23T13:42:37.180Z,17.45
2023-04-23T13:45:06.288Z,19.27
2023-04-23T13:47:35.097Z,17.45
2023-04-23T13:50:07.056Z,16.00
2023-04-23T13:52:35.829Z,17.40
2023-04-23T13:55:04.100Z,18.00
2023-04-23T13:57:31.135Z,17.95
2023-04-23T13:59:58.782Z,17.08
2023-04-23T14:02:26.003Z,17.10
2023-04-23T14:04:53.480Z,17.30
2023-04-23T14:07:21.169Z,17.25
2023-04-23T14:09:52.784Z,15.70
2023-04-23T14:12:20.488Z,16.23
2023-04-23T14:14:48.357Z,17.27
2023-04-23T14:17:18.218Z,15.73
2023-04-23T14:19:45.754Z,17.08
2023-04-23T14:22:12.971Z,17.90
2023-04-23T14:24:51.057Z,16.40
2023-04-23T14:27:18.316Z,17.00
2023-04-23T14:29:56.110Z,17.48
2023-04-23T14:32:23.461Z,15.90
2023-04-23T14:34:51.563Z,16.67
2023-04-23T14:37:18.771Z,17.25
2023-04-23T14:39:46.988Z,16.25
2023-04-23T14:42:14.375Z,17.75
2023-04-23T14:44:41.577Z,17.33
2023-04-23T14:47:10.377Z,18.05
2023-04-23T14:49:37.766Z,18.20
2023-04-23T14:52:05.030Z,17.08
2023-04-23T14:54:32.130Z,16.90
2023-04-23T14:56:59.220Z,16.77
2023-04-23T14:59:26.295Z,16.95
2023-04-23T15:01:53.797Z,17.67
2023-04-23T15:04:22.284Z,16.98
2023-04-23T15:06:49.447Z,16.77
2023-04-23T15:09:17.247Z,17.20
2023-04-23T15:11:44.441Z,16.67
2023-04-23T15:14:25.788Z,17.80
2023-04-23T15:16:53.229Z,16.40
2023-04-23T15:19:20.476Z,16.90
2023-04-23T15:21:48.075Z,23.33
2023-04-23T15:24:17.482Z,17.48
2023-04-23T15:26:46.223Z,16.80
2023-04-23T15:29:13.935Z,17.17
2023-04-23T15:31:41.914Z,16.15
2023-04-23T15:34:14.261Z,16.08
2023-04-23T15:36:41.397Z,16.20
2023-04-23T15:39:09.354Z,16.15
2023-04-23T15:41:40.205Z,16.52
2023-04-23T15:44:13.470Z,16.50
2023-04-23T15:46:41.128Z,16.13
2023-04-23T15:49:08.404Z,16.30
2023-04-23T15:51:36.036Z,16.25
2023-04-23T15:54:03.240Z,16.17
2023-04-23T15:56:30.443Z,16.27
2023-04-23T15:58:57.516Z,15.90
2023-04-23T16:01:27.030Z,15.80
2023-04-23T16:04:09.796Z,16.13
2023-04-23T16:06:37.797Z,15.90
2023-04-23T16:09:08.431Z,16.10
2023-04-23T16:11:37.223Z,16.50
2023-04-23T16:14:05.077Z,16.05
2023-04-23T16:16:32.365Z,15.98
2023-04-23T16:19:00.157Z,16.02
2023-04-23T16:21:28.131Z,16.38
2023-04-23T16:23:55.582Z,16.58
2023-04-23T16:26:23.036Z,16.42
2023-04-23T16:28:56.553Z,16.52
2023-04-23T16:31:33.907Z,17.98
2023-04-23T16:34:01.255Z,19.13
2023-04-23T16:36:28.835Z,18.70
2023-04-23T16:38:56.556Z,19.38
2023-04-23T16:41:23.635Z,17.10
2023-04-23T16:43:51.144Z,17.23
2023-04-23T16:46:18.418Z,16.67
2023-04-23T16:48:46.083Z,16.55
2023-04-23T16:51:13.428Z,16.75
2023-04-23T16:53:40.691Z,16.33
2023-04-23T16:56:09.239Z,17.00
2023-04-23T16:58:36.508Z,16.60
2023-04-23T17:01:05.140Z,16.85
2023-04-23T17:03:33.813Z,17.00
2023-04-23T17:06:10.403Z,17.38
2023-04-23T17:08:38.701Z,16.50
2023-04-23T17:11:07.236Z,16.15
2023-04-23T17:13:36.871Z,15.82
2023-04-23T17:16:04.281Z,16.15
2023-04-23T17:18:31.420Z,16.27
2023-04-23T17:20:58.598Z,16.08
2023-04-23T17:23:25.736Z,16.25
2023-04-23T17:25:52.950Z,16.65
2023-04-23T17:28:21.186Z,16.80
2023-04-23T17:30:51.368Z,17.58
2023-04-23T17:33:18.659Z,17.27
2023-04-23T17:35:52.110Z,17.40
2023-04-23T17:38:23.422Z,19.20
2023-04-23T17:40:51.896Z,18.90
2023-04-23T17:43:19.817Z,19.30
2023-04-23T17:45:47.869Z,18.27
2023-04-23T17:48:16.055Z,18.77
2023-04-23T17:50:43.873Z,18.83
2023-04-23T17:53:11.188Z,20.38
2023-04-23T17:55:38.340Z,22.13
2023-04-23T17:58:05.939Z,22.13
2023-04-23T18:00:42.807Z,21.75
2023-04-23T18:03:11.863Z,21.38
2023-04-23T18:05:39.484Z,22.33
2023-04-23T18:08:08.384Z,22.55
2023-04-23T18:10:35.925Z,23.73
2023-04-23T18:13:03.711Z,28.42
2023-04-23T18:15:34.089Z,26.58
2023-04-23T18:18:05.144Z,28.65
2023-04-23T18:20:35.263Z,29.90
2023-04-23T18:23:04.546Z,31.58
2023-04-23T18:25:33.486Z,29.90
2023-04-23T18:28:00.897Z,32.22
2023-04-23T18:30:28.289Z,30.95
2023-04-23T18:33:36.436Z,34.72
2023-04-23T18:36:15.321Z,31.48
2023-04-23T18:38:45.960Z,29.65
2023-04-23T18:41:13.398Z,35.17
2023-04-23T18:43:40.728Z,28.90
2023-04-23T18:46:07.888Z,28.30
2023-04-23T18:48:43.294Z,26.30
2023-04-23T18:51:21.607Z,25.10
2023-04-23T18:53:50.504Z,25.58
2023-04-23T18:56:17.883Z,24.73
2023-04-23T18:58:45.231Z,23.85
2023-04-23T19:01:13.337Z,23.88
2023-04-23T19:03:40.639Z,24.63
2023-04-23T19:06:08.404Z,23.67
2023-04-23T19:08:36.172Z,24.02
2023-04-23T19:11:05.390Z,24.23
2023-04-23T19:13:32.768Z,23.58
2023-04-23T19:16:00.190Z,22.58
2023-04-23T19:18:27.650Z,22.55
2023-04-23T19:20:54.832Z,21.80
2023-04-23T19:23:21.981Z,21.42
2023-04-23T19:25:49.294Z,21.13
2023-04-23T19:28:16.724Z,20.67
2023-04-23T19:30:44.174Z,21.05
2023-04-23T19:33:12.061Z,21.17
2023-04-23T19:35:41.997Z,22.05
2023-04-23T19:38:09.919Z,22.10
2023-04-23T19:40:36.954Z,21.77
2023-04-23T19:43:04.184Z,22.35
2023-04-23T19:45:32.624Z,22.40
2023-04-23T19:48:00.426Z,22.45
2023-04-23T19:50:27.885Z,22.52
2023-04-23T19:52:56.188Z,22.33
2023-04-23T19:55:27.357Z,22.88
2023-04-23T19:57:56.296Z,23.02
2023-04-23T20:00:30.198Z,22.73
2023-04-23T20:02:58.319Z,23.40
2023-04-23T20:05:25.858Z,22.35
2023-04-23T20:07:52.937Z,23.23
2023-04-23T20:10:22.050Z,23.13
2023-04-23T20:12:49.306Z,23.13
2023-04-23T20:15:16.627Z,22.30
2023-04-23T20:17:43.652Z,22.80
2023-04-23T20:20:11.615Z,23.70
2023-04-23T20:22:39.220Z,23.23
2023-04-23T20:25:07.770Z,23.05
2023-04-23T20:27:35.525Z,23.25
2023-04-23T20:30:09.730Z,22.95
2023-04-23T20:35:04.222Z,23.42
2023-04-23T20:37:31.333Z,23.10
2023-04-23T20:39:58.699Z,24.08
2023-04-23T20:42:25.936Z,24.63
2023-04-23T20:44:53.362Z,23.65
2023-04-23T20:47:20.408Z,23.80
2023-04-23T20:49:47.732Z,24.05
2023-04-23T20:52:15.484Z,23.30
2023-04-23T20:54:42.540Z,28.13
2023-04-23T20:57:11.808Z,23.95
2023-04-23T20:59:38.839Z,22.98
2023-04-23T21:02:07.632Z,23.67
2023-04-23T21:04:35.823Z,23.48
2023-04-23T21:07:03.332Z,23.77
2023-04-23T21:09:30.644Z,23.58
2023-04-23T21:11:58.688Z,23.58
2023-04-23T21:14:25.836Z,24.70
2023-04-23T21:16:56.351Z,24.67
2023-04-23T21:19:24.924Z,25.27
2023-04-23T21:21:51.987Z,26.00
2023-04-23T21:24:19.062Z,26.75
2023-04-23T21:26:47.149Z,27.05
2023-04-23T21:29:15.596Z,27.92
2023-04-23T21:31:47.374Z,27.55
2023-04-23T21:34:15.377Z,28.30
2023-04-23T21:36:44.823Z,28.67
2023-04-23T21:39:13.305Z,26.17
2023-04-23T21:41:40.780Z,25.88
2023-04-23T21:44:08.855Z,25.88
2023-04-23T21:46:36.260Z,26.65
2023-04-23T21:49:03.515Z,26.05
2023-04-23T21:51:37.288Z,25.88
2023-04-23T21:54:06.070Z,26.75
2023-04-23T21:56:33.951Z,26.52
2023-04-23T21:59:01.203Z,27.80
2023-04-23T22:01:28.484Z,26.17
2023-04-23T22:03:56.012Z,27.27
2023-04-23T22:06:23.416Z,25.30
2023-04-23T22:08:52.895Z,25.67
2023-04-23T22:11:20.791Z,25.52
2023-04-23T22:13:47.889Z,25.45
2023-04-23T22:16:27.440Z,24.73
2023-04-23T22:18:57.261Z,24.83
2023-04-23T22:21:24.518Z,24.83
2023-04-23T22:23:52.074Z,24.45
2023-04-23T22:26:19.286Z,25.02
2023-04-23T22:28:46.810Z,25.00
2023-04-23T22:31:14.005Z,26.10
2023-04-23T22:33:41.035Z,26.23
2023-04-23T22:36:08.309Z,25.90
2023-04-23T22:38:35.814Z,25.25
2023-04-23T22:41:03.417Z,26.63
2023-04-23T22:43:30.810Z,25.83
2023-04-23T22:45:58.258Z,25.42
2023-04-23T22:48:25.384Z,25.85
2023-04-23T22:50:54.291Z,26.30
2023-04-23T22:53:21.447Z,25.20
2023-04-23T22:55:49.577Z,26.42
2023-04-23T22:58:18.298Z,25.60
2023-04-23T23:00:45.592Z,25.77
2023-04-23T23:03:12.831Z,26.13
2023-04-23T23:05:40.071Z,25.73
2023-04-23T23:08:08.649Z,26.05
2023-04-23T23:10:35.967Z,25.38
2023-04-23T23:13:03.107Z,25.38
2023-04-23T23:15:30.214Z,25.27
2023-04-23T23:17:58.010Z,25.25
2023-04-23T23:20:25.411Z,25.08
2023-04-23T23:22:52.668Z,25.08
2023-04-23T23:25:19.800Z,25.00
2023-04-23T23:27:47.042Z,24.15
2023-04-23T23:30:14.796Z,25.48
2023-04-23T23:32:41.940Z,24.52
2023-04-23T23:35:09.914Z,25.20
2023-04-23T23:37:37.249Z,25.45
2023-04-23T23:40:06.238Z,27.00
2023-04-23T23:42:33.229Z,25.30
2023-04-23T23:45:00.707Z,25.42
2023-04-23T23:47:27.830Z,25.60
2023-04-23T23:49:54.845Z,26.38
2023-04-23T23:52:23.402Z,27.23
2023-04-23T23:54:51.803Z,26.50
2023-04-23T23:57:19.140Z,26.05
2023-04-23T23:59:47.255Z,25.48
